sensor_id;sensor_type;location;lat;lon;timestamp;pressure;altitude;pressure_sealevel;temperature;humidity
79671;BME280;69137;50.878;8.050;2024-02-21T00:01:16;98928.63;;;6.38;83.88
79671;BME280;69137;50.878;8.050;2024-02-21T00:03:42;98919.44;;;6.39;84.35
79671;BME280;69137;50.878;8.050;2024-02-21T00:06:08;98911.75;;;6.36;84.42
79671;BME280;69137;50.878;8.050;2024-02-21T00:08:33;98915.03;;;6.38;84.29
79671;BME280;69137;50.878;8.050;2024-02-21T00:10:58;98909.72;;;6.31;84.42
79671;BME280;69137;50.878;8.050;2024-02-21T00:13:23;98904.75;;;6.28;85.05
79671;BME280;69137;50.878;8.050;2024-02-21T00:15:49;98907.50;;;6.40;84.28
79671;BME280;69137;50.878;8.050;2024-02-21T00:18:14;98902.69;;;6.42;84.80
79671;BME280;69137;50.878;8.050;2024-02-21T00:20:40;98895.38;;;6.43;84.35
79671;BME280;69137;50.878;8.050;2024-02-21T00:23:05;98901.09;;;6.34;85.30
79671;BME280;69137;50.878;8.050;2024-02-21T00:25:30;98907.16;;;6.37;84.80
79671;BME280;69137;50.878;8.050;2024-02-21T00:27:55;98899.69;;;6.32;85.02
79671;BME280;69137;50.878;8.050;2024-02-21T00:30:21;98901.56;;;6.31;85.00
79671;BME280;69137;50.878;8.050;2024-02-21T00:32:46;98907.81;;;6.32;85.26
79671;BME280;69137;50.878;8.050;2024-02-21T00:35:11;98905.94;;;6.32;85.43
79671;BME280;69137;50.878;8.050;2024-02-21T00:37:37;98898.91;;;6.25;85.89
79671;BME280;69137;50.878;8.050;2024-02-21T00:40:03;98891.47;;;6.20;86.12
79671;BME280;69137;50.878;8.050;2024-02-21T00:42:28;98889.75;;;6.26;85.76
79671;BME280;69137;50.878;8.050;2024-02-21T00:44:53;98882.41;;;6.45;85.25
79671;BME280;69137;50.878;8.050;2024-02-21T00:47:19;98876.31;;;6.31;85.65
79671;BME280;69137;50.878;8.050;2024-02-21T00:49:44;98868.31;;;6.36;85.43
79671;BME280;69137;50.878;8.050;2024-02-21T00:52:09;98875.41;;;6.37;85.36
79671;BME280;69137;50.878;8.050;2024-02-21T00:54:34;98871.94;;;6.30;85.90
79671;BME280;69137;50.878;8.050;2024-02-21T00:57:00;98867.78;;;6.27;86.07
79671;BME280;69137;50.878;8.050;2024-02-21T00:59:25;98866.50;;;6.30;86.16
79671;BME280;69137;50.878;8.050;2024-02-21T01:01:50;98870.22;;;6.36;86.17
79671;BME280;69137;50.878;8.050;2024-02-21T01:04:15;98872.47;;;6.20;86.43
79671;BME280;69137;50.878;8.050;2024-02-21T01:06:41;98862.91;;;6.36;85.98
79671;BME280;69137;50.878;8.050;2024-02-21T01:09:09;98852.50;;;6.33;86.15
79671;BME280;69137;50.878;8.050;2024-02-21T01:11:34;98857.78;;;6.28;86.57
79671;BME280;69137;50.878;8.050;2024-02-21T01:13:59;98864.03;;;6.28;86.27
79671;BME280;69137;50.878;8.050;2024-02-21T01:16:25;98862.75;;;6.31;86.94
79671;BME280;69137;50.878;8.050;2024-02-21T01:18:51;98855.47;;;6.43;85.78
79671;BME280;69137;50.878;8.050;2024-02-21T01:21:16;98853.91;;;6.17;87.20
79671;BME280;69137;50.878;8.050;2024-02-21T01:23:41;98851.75;;;6.26;86.74
79671;BME280;69137;50.878;8.050;2024-02-21T01:26:06;98845.50;;;6.25;87.31
79671;BME280;69137;50.878;8.050;2024-02-21T01:28:33;98848.56;;;6.29;87.09
79671;BME280;69137;50.878;8.050;2024-02-21T01:30:59;98844.78;;;6.48;86.06
79671;BME280;69137;50.878;8.050;2024-02-21T01:33:24;98844.72;;;6.37;87.44
79671;BME280;69137;50.878;8.050;2024-02-21T01:35:49;98838.69;;;6.34;87.04
79671;BME280;69137;50.878;8.050;2024-02-21T01:38:15;98845.41;;;6.32;87.48
79671;BME280;69137;50.878;8.050;2024-02-21T01:40:40;98838.34;;;6.31;88.08
79671;BME280;69137;50.878;8.050;2024-02-21T01:43:15;98831.69;;;6.27;87.89
79671;BME280;69137;50.878;8.050;2024-02-21T01:45:41;98831.94;;;6.25;87.99
79671;BME280;69137;50.878;8.050;2024-02-21T01:48:06;98827.53;;;6.24;87.45
79671;BME280;69137;50.878;8.050;2024-02-21T01:50:31;98817.91;;;6.28;87.69
79671;BME280;69137;50.878;8.050;2024-02-21T01:52:57;98814.22;;;6.23;87.52
79671;BME280;69137;50.878;8.050;2024-02-21T01:55:22;98809.50;;;6.30;87.61
79671;BME280;69137;50.878;8.050;2024-02-21T01:57:48;98806.09;;;6.23;87.59
79671;BME280;69137;50.878;8.050;2024-02-21T02:00:13;98799.66;;;6.17;88.33
79671;BME280;69137;50.878;8.050;2024-02-21T02:02:40;98811.66;;;6.28;87.37
79671;BME280;69137;50.878;8.050;2024-02-21T02:05:07;98802.81;;;6.32;87.24
79671;BME280;69137;50.878;8.050;2024-02-21T02:07:32;98801.97;;;6.32;87.28
79671;BME280;69137;50.878;8.050;2024-02-21T02:09:58;98792.56;;;6.34;86.78
79671;BME280;69137;50.878;8.050;2024-02-21T02:12:23;98788.66;;;6.30;86.99
79671;BME280;69137;50.878;8.050;2024-02-21T02:15:02;98783.38;;;6.36;86.88
79671;BME280;69137;50.878;8.050;2024-02-21T02:17:31;98763.06;;;6.38;86.31
79671;BME280;69137;50.878;8.050;2024-02-21T02:19:56;98760.81;;;6.35;86.78
79671;BME280;69137;50.878;8.050;2024-02-21T02:22:31;98762.22;;;6.26;87.47
79671;BME280;69137;50.878;8.050;2024-02-21T02:24:57;98756.91;;;6.31;87.19
79671;BME280;69137;50.878;8.050;2024-02-21T02:27:23;98765.19;;;6.36;86.38
79671;BME280;69137;50.878;8.050;2024-02-21T02:29:49;98748.63;;;6.26;87.45
79671;BME280;69137;50.878;8.050;2024-02-21T02:32:14;98763.25;;;6.25;87.60
79671;BME280;69137;50.878;8.050;2024-02-21T02:34:40;98756.19;;;6.24;87.64
79671;BME280;69137;50.878;8.050;2024-02-21T02:37:05;98747.03;;;6.37;87.10
79671;BME280;69137;50.878;8.050;2024-02-21T02:39:30;98744.78;;;6.33;86.58
79671;BME280;69137;50.878;8.050;2024-02-21T02:41:56;98752.19;;;6.38;86.82
79671;BME280;69137;50.878;8.050;2024-02-21T02:44:21;98751.25;;;6.32;86.70
79671;BME280;69137;50.878;8.050;2024-02-21T02:46:46;98740.63;;;6.31;86.71
79671;BME280;69137;50.878;8.050;2024-02-21T02:49:11;98735.22;;;6.31;86.82
79671;BME280;69137;50.878;8.050;2024-02-21T02:51:41;98715.69;;;6.22;87.03
79671;BME280;69137;50.878;8.050;2024-02-21T02:54:06;98721.84;;;6.29;86.77
79671;BME280;69137;50.878;8.050;2024-02-21T02:56:31;98706.50;;;6.23;86.99
79671;BME280;69137;50.878;8.050;2024-02-21T02:58:57;98714.78;;;6.28;86.70
79671;BME280;69137;50.878;8.050;2024-02-21T03:01:22;98704.00;;;6.22;87.46
79671;BME280;69137;50.878;8.050;2024-02-21T03:03:47;98702.22;;;6.16;87.95
79671;BME280;69137;50.878;8.050;2024-02-21T03:06:13;98691.84;;;6.12;88.02
79671;BME280;69137;50.878;8.050;2024-02-21T03:08:39;98690.59;;;6.27;87.15
79671;BME280;69137;50.878;8.050;2024-02-21T03:11:05;98690.50;;;6.33;86.42
79671;BME280;69137;50.878;8.050;2024-02-21T03:13:30;98687.06;;;6.38;86.28
79671;BME280;69137;50.878;8.050;2024-02-21T03:15:55;98693.81;;;6.36;86.48
79671;BME280;69137;50.878;8.050;2024-02-21T03:18:20;98695.22;;;6.38;86.43
79671;BME280;69137;50.878;8.050;2024-02-21T03:20:46;98690.13;;;6.30;86.49
79671;BME280;69137;50.878;8.050;2024-02-21T03:23:11;98687.78;;;6.33;86.60
79671;BME280;69137;50.878;8.050;2024-02-21T03:25:36;98693.44;;;6.32;86.87
79671;BME280;69137;50.878;8.050;2024-02-21T03:28:02;98682.09;;;6.23;87.28
79671;BME280;69137;50.878;8.050;2024-02-21T03:30:27;98690.91;;;6.19;88.00
79671;BME280;69137;50.878;8.050;2024-02-21T03:32:52;98700.25;;;6.23;87.69
79671;BME280;69137;50.878;8.050;2024-02-21T03:35:17;98698.38;;;6.23;88.03
79671;BME280;69137;50.878;8.050;2024-02-21T03:37:45;98688.13;;;6.25;87.88
79671;BME280;69137;50.878;8.050;2024-02-21T03:40:10;98691.06;;;6.24;88.10
79671;BME280;69137;50.878;8.050;2024-02-21T03:42:35;98683.97;;;6.23;87.99
79671;BME280;69137;50.878;8.050;2024-02-21T03:45:01;98692.47;;;6.26;87.69
79671;BME280;69137;50.878;8.050;2024-02-21T03:47:26;98691.75;;;6.19;87.91
79671;BME280;69137;50.878;8.050;2024-02-21T03:49:52;98693.09;;;6.28;88.12
79671;BME280;69137;50.878;8.050;2024-02-21T03:52:17;98692.06;;;6.41;86.94
79671;BME280;69137;50.878;8.050;2024-02-21T03:54:42;98691.41;;;6.27;87.45
79671;BME280;69137;50.878;8.050;2024-02-21T03:57:08;98681.97;;;6.30;86.96
79671;BME280;69137;50.878;8.050;2024-02-21T03:59:33;98671.38;;;6.28;86.85
79671;BME280;69137;50.878;8.050;2024-02-21T04:01:58;98677.47;;;6.24;87.35
79671;BME280;69137;50.878;8.050;2024-02-21T04:04:24;98670.41;;;6.23;87.30
79671;BME280;69137;50.878;8.050;2024-02-21T04:06:50;98669.13;;;6.25;87.43
79671;BME280;69137;50.878;8.050;2024-02-21T04:09:15;98658.16;;;6.32;86.67
79671;BME280;69137;50.878;8.050;2024-02-21T04:11:40;98645.41;;;6.21;87.81
79671;BME280;69137;50.878;8.050;2024-02-21T04:14:06;98651.44;;;6.23;87.78
79671;BME280;69137;50.878;8.050;2024-02-21T04:16:32;98649.63;;;6.17;87.30
79671;BME280;69137;50.878;8.050;2024-02-21T04:18:57;98641.00;;;6.20;87.63
79671;BME280;69137;50.878;8.050;2024-02-21T04:21:23;98646.00;;;6.23;87.56
79671;BME280;69137;50.878;8.050;2024-02-21T04:23:48;98641.47;;;6.17;87.81
79671;BME280;69137;50.878;8.050;2024-02-21T04:26:13;98641.13;;;6.13;88.75
79671;BME280;69137;50.878;8.050;2024-02-21T04:28:39;98649.78;;;6.33;86.96
79671;BME280;69137;50.878;8.050;2024-02-21T04:31:04;98637.84;;;6.23;87.71
79671;BME280;69137;50.878;8.050;2024-02-21T04:33:29;98642.56;;;6.16;87.69
79671;BME280;69137;50.878;8.050;2024-02-21T04:35:54;98630.81;;;6.33;87.08
79671;BME280;69137;50.878;8.050;2024-02-21T04:38:20;98630.06;;;6.26;87.31
79671;BME280;69137;50.878;8.050;2024-02-21T04:40:45;98623.63;;;6.39;86.63
79671;BME280;69137;50.878;8.050;2024-02-21T04:43:11;98632.56;;;6.28;87.79
79671;BME280;69137;50.878;8.050;2024-02-21T04:45:36;98635.72;;;6.25;87.38
79671;BME280;69137;50.878;8.050;2024-02-21T04:48:01;98627.56;;;6.25;87.15
79671;BME280;69137;50.878;8.050;2024-02-21T04:50:27;98631.44;;;6.17;88.17
79671;BME280;69137;50.878;8.050;2024-02-21T04:52:52;98634.91;;;6.24;87.63
79671;BME280;69137;50.878;8.050;2024-02-21T04:55:17;98631.78;;;6.09;88.19
79671;BME280;69137;50.878;8.050;2024-02-21T04:57:43;98634.63;;;6.14;88.18
79671;BME280;69137;50.878;8.050;2024-02-21T05:00:08;98630.03;;;6.15;87.95
79671;BME280;69137;50.878;8.050;2024-02-21T05:02:34;98636.66;;;6.19;87.17
79671;BME280;69137;50.878;8.050;2024-02-21T05:04:59;98635.28;;;6.28;86.77
79671;BME280;69137;50.878;8.050;2024-02-21T05:07:25;98626.75;;;6.24;87.12
79671;BME280;69137;50.878;8.050;2024-02-21T05:09:50;98637.53;;;6.31;86.92
79671;BME280;69137;50.878;8.050;2024-02-21T05:12:16;98630.41;;;6.18;87.74
79671;BME280;69137;50.878;8.050;2024-02-21T05:14:41;98623.91;;;6.19;87.11
79671;BME280;69137;50.878;8.050;2024-02-21T05:17:07;98631.19;;;6.07;87.76
79671;BME280;69137;50.878;8.050;2024-02-21T05:19:32;98625.53;;;6.08;87.54
79671;BME280;69137;50.878;8.050;2024-02-21T05:21:58;98627.44;;;6.08;87.75
79671;BME280;69137;50.878;8.050;2024-02-21T05:24:24;98636.38;;;6.08;87.90
79671;BME280;69137;50.878;8.050;2024-02-21T05:26:49;98626.91;;;5.99;88.34
79671;BME280;69137;50.878;8.050;2024-02-21T05:29:14;98625.75;;;6.07;87.97
79671;BME280;69137;50.878;8.050;2024-02-21T05:34:18;98633.53;;;6.03;88.43
79671;BME280;69137;50.878;8.050;2024-02-21T05:36:43;98626.91;;;5.99;88.31
79671;BME280;69137;50.878;8.050;2024-02-21T05:39:09;98632.38;;;6.11;87.80
79671;BME280;69137;50.878;8.050;2024-02-21T05:41:34;98639.44;;;6.12;87.89
79671;BME280;69137;50.878;8.050;2024-02-21T05:44:00;98631.31;;;6.12;87.59
79671;BME280;69137;50.878;8.050;2024-02-21T05:46:25;98628.28;;;6.20;87.32
79671;BME280;69137;50.878;8.050;2024-02-21T05:48:50;98632.25;;;6.06;87.88
79671;BME280;69137;50.878;8.050;2024-02-21T05:51:16;98621.03;;;6.02;88.04
79671;BME280;69137;50.878;8.050;2024-02-21T05:53:41;98619.97;;;6.03;87.30
79671;BME280;69137;50.878;8.050;2024-02-21T05:56:13;98625.75;;;6.07;87.59
79671;BME280;69137;50.878;8.050;2024-02-21T05:58:39;98618.47;;;6.07;87.57
79671;BME280;69137;50.878;8.050;2024-02-21T06:01:04;98619.28;;;6.08;87.60
79671;BME280;69137;50.878;8.050;2024-02-21T06:03:31;98616.78;;;6.06;87.58
79671;BME280;69137;50.878;8.050;2024-02-21T06:05:57;98619.03;;;6.09;87.41
79671;BME280;69137;50.878;8.050;2024-02-21T06:08:22;98610.41;;;6.01;87.86
79671;BME280;69137;50.878;8.050;2024-02-21T06:10:48;98605.00;;;6.01;88.26
79671;BME280;69137;50.878;8.050;2024-02-21T06:13:14;98610.59;;;6.18;87.16
79671;BME280;69137;50.878;8.050;2024-02-21T06:15:39;98613.88;;;6.08;87.59
79671;BME280;69137;50.878;8.050;2024-02-21T06:18:04;98614.22;;;6.11;87.36
79671;BME280;69137;50.878;8.050;2024-02-21T06:20:30;98603.75;;;6.15;87.26
79671;BME280;69137;50.878;8.050;2024-02-21T06:22:55;98607.97;;;6.11;87.75
79671;BME280;69137;50.878;8.050;2024-02-21T06:25:20;98604.66;;;6.09;87.77
79671;BME280;69137;50.878;8.050;2024-02-21T06:27:45;98599.41;;;6.26;86.47
79671;BME280;69137;50.878;8.050;2024-02-21T06:30:11;98607.03;;;6.17;86.87
79671;BME280;69137;50.878;8.050;2024-02-21T06:32:36;98601.59;;;6.05;87.50
79671;BME280;69137;50.878;8.050;2024-02-21T06:35:03;98607.88;;;6.18;86.78
79671;BME280;69137;50.878;8.050;2024-02-21T06:37:29;98604.09;;;6.19;86.18
79671;BME280;69137;50.878;8.050;2024-02-21T06:39:55;98605.59;;;6.03;87.74
79671;BME280;69137;50.878;8.050;2024-02-21T06:42:20;98597.47;;;6.03;86.60
79671;BME280;69137;50.878;8.050;2024-02-21T06:44:46;98599.44;;;5.96;87.32
79671;BME280;69137;50.878;8.050;2024-02-21T06:47:12;98592.38;;;6.06;86.44
79671;BME280;69137;50.878;8.050;2024-02-21T06:49:37;98595.09;;;5.95;87.62
79671;BME280;69137;50.878;8.050;2024-02-21T06:52:04;98582.97;;;6.09;86.80
79671;BME280;69137;50.878;8.050;2024-02-21T06:54:30;98578.22;;;6.04;86.97
79671;BME280;69137;50.878;8.050;2024-02-21T06:56:55;98566.19;;;6.00;87.09
79671;BME280;69137;50.878;8.050;2024-02-21T06:59:20;98565.44;;;5.93;87.24
79671;BME280;69137;50.878;8.050;2024-02-21T07:01:48;98563.97;;;5.97;87.00
79671;BME280;69137;50.878;8.050;2024-02-21T07:04:14;98558.06;;;6.12;86.19
79671;BME280;69137;50.878;8.050;2024-02-21T07:06:40;98556.22;;;6.12;86.55
79671;BME280;69137;50.878;8.050;2024-02-21T07:09:05;98555.97;;;6.14;85.86
79671;BME280;69137;50.878;8.050;2024-02-21T07:11:30;98559.28;;;6.16;86.12
79671;BME280;69137;50.878;8.050;2024-02-21T07:13:55;98562.72;;;6.35;85.13
79671;BME280;69137;50.878;8.050;2024-02-21T07:16:21;98559.19;;;6.23;86.22
79671;BME280;69137;50.878;8.050;2024-02-21T07:18:46;98558.31;;;6.22;86.17
79671;BME280;69137;50.878;8.050;2024-02-21T07:21:11;98558.94;;;6.12;86.72
79671;BME280;69137;50.878;8.050;2024-02-21T07:23:41;98561.63;;;6.24;86.42
79671;BME280;69137;50.878;8.050;2024-02-21T07:26:07;98557.75;;;6.20;86.36
79671;BME280;69137;50.878;8.050;2024-02-21T07:28:32;98558.81;;;6.19;86.43
79671;BME280;69137;50.878;8.050;2024-02-21T07:31:03;98554.44;;;6.30;85.78
79671;BME280;69137;50.878;8.050;2024-02-21T07:33:28;98566.16;;;6.30;86.15
79671;BME280;69137;50.878;8.050;2024-02-21T07:35:55;98562.47;;;6.25;86.84
79671;BME280;69137;50.878;8.050;2024-02-21T07:38:21;98563.41;;;6.19;87.20
79671;BME280;69137;50.878;8.050;2024-02-21T07:40:47;98562.84;;;6.28;86.70
79671;BME280;69137;50.878;8.050;2024-02-21T07:43:13;98550.44;;;6.21;87.39
79671;BME280;69137;50.878;8.050;2024-02-21T07:45:38;98550.88;;;6.06;87.74
79671;BME280;69137;50.878;8.050;2024-02-21T07:48:05;98565.28;;;6.18;87.15
79671;BME280;69137;50.878;8.050;2024-02-21T07:50:30;98559.88;;;6.18;87.19
79671;BME280;69137;50.878;8.050;2024-02-21T07:52:56;98555.75;;;6.16;87.51
79671;BME280;69137;50.878;8.050;2024-02-21T07:55:21;98551.34;;;6.15;86.96
79671;BME280;69137;50.878;8.050;2024-02-21T07:57:46;98548.31;;;6.23;86.01
79671;BME280;69137;50.878;8.050;2024-02-21T08:00:12;98536.41;;;6.24;87.33
79671;BME280;69137;50.878;8.050;2024-02-21T08:02:44;98528.03;;;6.37;85.12
79671;BME280;69137;50.878;8.050;2024-02-21T08:05:09;98523.41;;;6.38;86.13
79671;BME280;69137;50.878;8.050;2024-02-21T08:07:37;98532.03;;;6.34;85.54
79671;BME280;69137;50.878;8.050;2024-02-21T08:10:02;98521.88;;;6.30;86.32
79671;BME280;69137;50.878;8.050;2024-02-21T08:12:28;98525.06;;;6.50;85.67
79671;BME280;69137;50.878;8.050;2024-02-21T08:14:53;98522.25;;;6.33;86.86
79671;BME280;69137;50.878;8.050;2024-02-21T08:17:18;98525.91;;;6.39;86.50
79671;BME280;69137;50.878;8.050;2024-02-21T08:19:43;98516.81;;;6.45;85.58
79671;BME280;69137;50.878;8.050;2024-02-21T08:22:09;98519.91;;;6.49;85.06
79671;BME280;69137;50.878;8.050;2024-02-21T08:24:34;98511.03;;;6.53;84.80
79671;BME280;69137;50.878;8.050;2024-02-21T08:26:59;98505.16;;;6.56;84.49
79671;BME280;69137;50.878;8.050;2024-02-21T08:29:25;98504.53;;;6.43;85.33
79671;BME280;69137;50.878;8.050;2024-02-21T08:31:50;98506.91;;;6.51;85.04
79671;BME280;69137;50.878;8.050;2024-02-21T08:34:15;98493.69;;;6.54;85.65
79671;BME280;69137;50.878;8.050;2024-02-21T08:36:41;98492.28;;;6.28;85.48
79671;BME280;69137;50.878;8.050;2024-02-21T08:39:06;98485.53;;;6.43;85.66
79671;BME280;69137;50.878;8.050;2024-02-21T08:41:34;98489.34;;;6.42;85.00
79671;BME280;69137;50.878;8.050;2024-02-21T08:43:59;98486.88;;;6.28;86.23
79671;BME280;69137;50.878;8.050;2024-02-21T08:46:25;98475.06;;;6.34;84.94
79671;BME280;69137;50.878;8.050;2024-02-21T08:48:52;98478.47;;;6.30;85.28
79671;BME280;69137;50.878;8.050;2024-02-21T08:51:17;98482.72;;;6.49;85.09
79671;BME280;69137;50.878;8.050;2024-02-21T08:53:47;98469.63;;;6.46;85.51
79671;BME280;69137;50.878;8.050;2024-02-21T08:56:13;98472.69;;;6.26;86.09
79671;BME280;69137;50.878;8.050;2024-02-21T08:58:39;98475.38;;;6.38;84.98
79671;BME280;69137;50.878;8.050;2024-02-21T09:01:06;98473.75;;;6.49;83.92
79671;BME280;69137;50.878;8.050;2024-02-21T09:03:38;98464.19;;;6.34;84.89
79671;BME280;69137;50.878;8.050;2024-02-21T09:06:07;98457.69;;;6.47;84.45
79671;BME280;69137;50.878;8.050;2024-02-21T09:08:33;98446.13;;;6.52;84.01
79671;BME280;69137;50.878;8.050;2024-02-21T09:10:59;98451.34;;;6.30;84.72
79671;BME280;69137;50.878;8.050;2024-02-21T09:13:24;98455.22;;;6.46;84.52
79671;BME280;69137;50.878;8.050;2024-02-21T09:15:50;98451.91;;;6.55;85.06
79671;BME280;69137;50.878;8.050;2024-02-21T09:18:16;98456.03;;;6.70;84.34
79671;BME280;69137;50.878;8.050;2024-02-21T09:20:42;98461.81;;;6.62;83.32
79671;BME280;69137;50.878;8.050;2024-02-21T09:23:07;98459.44;;;6.65;83.97
79671;BME280;69137;50.878;8.050;2024-02-21T09:25:32;98461.56;;;6.63;83.03
79671;BME280;69137;50.878;8.050;2024-02-21T09:27:58;98464.44;;;6.56;82.68
79671;BME280;69137;50.878;8.050;2024-02-21T09:30:23;98459.22;;;6.55;83.58
79671;BME280;69137;50.878;8.050;2024-02-21T09:32:49;98440.56;;;6.59;82.75
79671;BME280;69137;50.878;8.050;2024-02-21T09:35:14;98441.97;;;6.61;82.82
79671;BME280;69137;50.878;8.050;2024-02-21T09:37:40;98439.28;;;6.49;83.83
79671;BME280;69137;50.878;8.050;2024-02-21T09:40:06;98439.16;;;6.56;83.69
79671;BME280;69137;50.878;8.050;2024-02-21T09:42:41;98440.09;;;6.62;82.46
79671;BME280;69137;50.878;8.050;2024-02-21T09:45:23;98424.38;;;6.64;80.44
79671;BME280;69137;50.878;8.050;2024-02-21T09:50:26;98423.72;;;6.56;80.38
79671;BME280;69137;50.878;8.050;2024-02-21T09:52:54;98416.13;;;6.59;81.25
79671;BME280;69137;50.878;8.050;2024-02-21T09:55:20;98417.22;;;6.46;81.47
79671;BME280;69137;50.878;8.050;2024-02-21T09:57:45;98407.66;;;6.55;80.03
79671;BME280;69137;50.878;8.050;2024-02-21T10:00:11;98409.28;;;6.68;80.50
79671;BME280;69137;50.878;8.050;2024-02-21T10:02:39;98413.72;;;6.74;81.16
79671;BME280;69137;50.878;8.050;2024-02-21T10:05:04;98415.25;;;6.82;80.96
79671;BME280;69137;50.878;8.050;2024-02-21T10:07:33;98392.28;;;7.01;78.16
79671;BME280;69137;50.878;8.050;2024-02-21T10:10:02;98393.69;;;7.04;77.75
79671;BME280;69137;50.878;8.050;2024-02-21T10:12:28;98382.31;;;7.07;77.50
79671;BME280;69137;50.878;8.050;2024-02-21T10:15:04;98379.28;;;7.03;78.28
79671;BME280;69137;50.878;8.050;2024-02-21T10:17:31;98375.56;;;7.09;77.46
79671;BME280;69137;50.878;8.050;2024-02-21T10:20:07;98384.91;;;7.30;75.57
79671;BME280;69137;50.878;8.050;2024-02-21T10:22:33;98379.19;;;7.15;75.85
79671;BME280;69137;50.878;8.050;2024-02-21T10:25:08;98380.94;;;7.21;75.79
79671;BME280;69137;50.878;8.050;2024-02-21T10:27:33;98385.63;;;7.26;75.42
79671;BME280;69137;50.878;8.050;2024-02-21T10:29:58;98377.66;;;7.36;75.00
79671;BME280;69137;50.878;8.050;2024-02-21T10:32:24;98378.09;;;7.44;75.76
79671;BME280;69137;50.878;8.050;2024-02-21T10:35:01;98380.06;;;7.49;75.30
79671;BME280;69137;50.878;8.050;2024-02-21T10:37:26;98375.06;;;7.58;75.16
79671;BME280;69137;50.878;8.050;2024-02-21T10:39:53;98372.50;;;7.68;75.53
79671;BME280;69137;50.878;8.050;2024-02-21T10:42:21;98364.09;;;7.86;73.91
79671;BME280;69137;50.878;8.050;2024-02-21T10:44:46;98361.06;;;7.66;74.45
79671;BME280;69137;50.878;8.050;2024-02-21T10:47:16;98359.53;;;7.75;74.29
79671;BME280;69137;50.878;8.050;2024-02-21T10:49:49;98362.91;;;7.82;72.66
79671;BME280;69137;50.878;8.050;2024-02-21T10:52:46;98358.28;;;8.00;72.11
79671;BME280;69137;50.878;8.050;2024-02-21T10:55:38;98362.34;;;7.97;72.61
79671;BME280;69137;50.878;8.050;2024-02-21T10:58:08;98354.91;;;8.09;72.86
79671;BME280;69137;50.878;8.050;2024-02-21T11:00:35;98342.69;;;8.12;71.91
79671;BME280;69137;50.878;8.050;2024-02-21T11:03:01;98338.13;;;8.18;71.17
79671;BME280;69137;50.878;8.050;2024-02-21T11:05:26;98332.41;;;8.19;71.78
79671;BME280;69137;50.878;8.050;2024-02-21T11:07:53;98320.72;;;8.19;72.33
79671;BME280;69137;50.878;8.050;2024-02-21T11:10:26;98327.31;;;8.23;73.08
79671;BME280;69137;50.878;8.050;2024-02-21T11:13:07;98319.69;;;8.42;69.71
79671;BME280;69137;50.878;8.050;2024-02-21T11:15:33;98307.94;;;8.19;71.99
79671;BME280;69137;50.878;8.050;2024-02-21T11:17:58;98307.00;;;8.30;70.66
79671;BME280;69137;50.878;8.050;2024-02-21T11:20:36;98302.44;;;8.36;70.46
79671;BME280;69137;50.878;8.050;2024-02-21T11:23:02;98291.94;;;8.45;70.30
79671;BME280;69137;50.878;8.050;2024-02-21T11:25:28;98294.22;;;8.53;70.09
79671;BME280;69137;50.878;8.050;2024-02-21T11:28:05;98288.00;;;8.58;69.42
79671;BME280;69137;50.878;8.050;2024-02-21T11:30:32;98284.56;;;8.67;69.63
79671;BME280;69137;50.878;8.050;2024-02-21T11:33:06;98278.50;;;8.60;68.61
79671;BME280;69137;50.878;8.050;2024-02-21T11:35:35;98284.56;;;8.67;68.69
79671;BME280;69137;50.878;8.050;2024-02-21T11:38:11;98279.59;;;8.59;68.93
79671;BME280;69137;50.878;8.050;2024-02-21T11:40:40;98272.00;;;8.66;69.38
79671;BME280;69137;50.878;8.050;2024-02-21T11:43:06;98263.31;;;8.64;70.04
79671;BME280;69137;50.878;8.050;2024-02-21T11:45:32;98254.78;;;8.83;67.78
79671;BME280;69137;50.878;8.050;2024-02-21T11:47:59;98250.56;;;8.70;70.07
79671;BME280;69137;50.878;8.050;2024-02-21T11:50:26;98241.50;;;8.64;70.16
79671;BME280;69137;50.878;8.050;2024-02-21T11:52:54;98245.34;;;8.68;69.77
79671;BME280;69137;50.878;8.050;2024-02-21T11:55:19;98228.97;;;8.63;67.89
79671;BME280;69137;50.878;8.050;2024-02-21T11:57:44;98222.41;;;8.37;68.89
79671;BME280;69137;50.878;8.050;2024-02-21T12:00:20;98228.22;;;8.41;68.93
79671;BME280;69137;50.878;8.050;2024-02-21T12:02:46;98209.19;;;8.46;68.07
79671;BME280;69137;50.878;8.050;2024-02-21T12:05:11;98200.25;;;8.50;68.24
79671;BME280;69137;50.878;8.050;2024-02-21T12:07:37;98199.19;;;8.51;68.85
79671;BME280;69137;50.878;8.050;2024-02-21T12:10:09;98183.13;;;8.55;68.18
79671;BME280;69137;50.878;8.050;2024-02-21T12:12:35;98173.88;;;8.51;69.42
79671;BME280;69137;50.878;8.050;2024-02-21T12:15:03;98169.81;;;8.53;68.11
79671;BME280;69137;50.878;8.050;2024-02-21T12:17:29;98178.75;;;8.81;67.35
79671;BME280;69137;50.878;8.050;2024-02-21T12:19:56;98176.00;;;8.81;65.99
79671;BME280;69137;50.878;8.050;2024-02-21T12:22:21;98167.56;;;8.78;66.29
79671;BME280;69137;50.878;8.050;2024-02-21T12:24:47;98166.41;;;8.73;66.15
79671;BME280;69137;50.878;8.050;2024-02-21T12:27:13;98163.34;;;8.65;67.45
79671;BME280;69137;50.878;8.050;2024-02-21T12:29:39;98173.66;;;8.90;66.37
79671;BME280;69137;50.878;8.050;2024-02-21T12:32:04;98149.66;;;8.92;66.64
79671;BME280;69137;50.878;8.050;2024-02-21T12:34:29;98151.28;;;8.88;67.01
79671;BME280;69137;50.878;8.050;2024-02-21T12:36:58;98150.19;;;8.89;66.43
79671;BME280;69137;50.878;8.050;2024-02-21T12:39:23;98139.13;;;9.01;66.43
79671;BME280;69137;50.878;8.050;2024-02-21T12:41:49;98125.50;;;9.01;66.61
79671;BME280;69137;50.878;8.050;2024-02-21T12:44:14;98115.34;;;8.91;66.40
79671;BME280;69137;50.878;8.050;2024-02-21T12:46:41;98117.75;;;8.82;67.94
79671;BME280;69137;50.878;8.050;2024-02-21T12:49:06;98114.66;;;8.73;66.25
79671;BME280;69137;50.878;8.050;2024-02-21T12:51:35;98122.06;;;8.78;65.49
79671;BME280;69137;50.878;8.050;2024-02-21T12:54:00;98123.16;;;9.19;67.70
79671;BME280;69137;50.878;8.050;2024-02-21T12:56:28;98115.31;;;9.33;63.58
79671;BME280;69137;50.878;8.050;2024-02-21T12:58:55;98107.81;;;9.03;64.30
79671;BME280;69137;50.878;8.050;2024-02-21T13:01:20;98073.91;;;8.89;65.20
79671;BME280;69137;50.878;8.050;2024-02-21T13:03:46;98083.25;;;8.98;65.45
79671;BME280;69137;50.878;8.050;2024-02-21T13:06:11;98067.13;;;8.91;66.37
79671;BME280;69137;50.878;8.050;2024-02-21T13:08:37;98055.66;;;8.89;67.42
79671;BME280;69137;50.878;8.050;2024-02-21T13:11:03;98063.88;;;8.94;66.78